sensor_id;sensor_type;location;lat;lon;timestamp;pressure;altitude;pressure_sealevel;temperature;humidity
16190;BME280;41754;51.498;7.540;2023-02-03T00:00:06;101182.88;;;8.20;85.28
16190;BME280;41754;51.498;7.540;2023-02-03T00:02:37;101174.34;;;8.52;84.26
16190;BME280;41754;51.498;7.540;2023-02-03T00:05:06;101160.91;;;8.60;84.25
16190;BME280;41754;51.498;7.540;2023-02-03T00:07:35;101151.88;;;8.34;84.35
16190;BME280;41754;51.498;7.540;2023-02-03T00:10:05;101152.97;;;8.59;83.45
16190;BME280;41754;51.498;7.540;2023-02-03T00:12:33;101149.41;;;8.58;83.71
16190;BME280;41754;51.498;7.540;2023-02-03T00:15:03;101163.94;;;8.48;83.60
16190;BME280;41754;51.498;7.540;2023-02-03T00:17:31;101160.09;;;7.99;84.99
16190;BME280;41754;51.498;7.540;2023-02-03T00:19:59;101152.97;;;8.28;84.45
16190;BME280;41754;51.498;7.540;2023-02-03T00:22:26;101169.41;;;8.03;84.56
16190;BME280;41754;51.498;7.540;2023-02-03T00:24:54;101149.16;;;8.19;84.34
16190;BME280;41754;51.498;7.540;2023-02-03T00:27:22;101142.56;;;8.20;83.69
16190;BME280;41754;51.498;7.540;2023-02-03T00:29:50;101133.72;;;8.64;82.56
16190;BME280;41754;51.498;7.540;2023-02-03T00:32:20;101135.66;;;8.63;82.13
16190;BME280;41754;51.498;7.540;2023-02-03T00:34:48;101127.66;;;8.77;81.30
16190;BME280;41754;51.498;7.540;2023-02-03T00:37:16;101131.59;;;8.25;82.69
16190;BME280;41754;51.498;7.540;2023-02-03T00:39:44;101129.88;;;8.75;82.09
16190;BME280;41754;51.498;7.540;2023-02-03T00:42:12;101119.47;;;8.72;80.39
16190;BME280;41754;51.498;7.540;2023-02-03T00:44:40;101125.50;;;8.64;81.21
16190;BME280;41754;51.498;7.540;2023-02-03T00:47:08;101134.28;;;8.81;80.11
16190;BME280;41754;51.498;7.540;2023-02-03T00:49:37;101132.09;;;8.63;79.75
16190;BME280;41754;51.498;7.540;2023-02-03T00:52:05;101131.53;;;8.91;78.71
16190;BME280;41754;51.498;7.540;2023-02-03T00:54:32;101140.84;;;8.90;79.69
16190;BME280;41754;51.498;7.540;2023-02-03T00:57:01;101138.06;;;9.00;79.01
16190;BME280;41754;51.498;7.540;2023-02-03T00:59:30;101145.50;;;8.95;79.14
16190;BME280;41754;51.498;7.540;2023-02-03T01:01:58;101149.59;;;8.97;78.80
16190;BME280;41754;51.498;7.540;2023-02-03T01:04:26;101152.41;;;8.62;79.04
16190;BME280;41754;51.498;7.540;2023-02-03T01:06:55;101162.28;;;8.58;79.93
16190;BME280;41754;51.498;7.540;2023-02-03T01:09:25;101173.25;;;8.68;80.28
16190;BME280;41754;51.498;7.540;2023-02-03T01:11:53;101170.81;;;8.36;81.45
16190;BME280;41754;51.498;7.540;2023-02-03T01:14:21;101176.28;;;8.56;81.36
16190;BME280;41754;51.498;7.540;2023-02-03T01:16:48;101181.22;;;8.49;81.43
16190;BME280;41754;51.498;7.540;2023-02-03T01:19:16;101192.44;;;8.63;81.20
16190;BME280;41754;51.498;7.540;2023-02-03T01:21:44;101201.22;;;8.65;80.34
16190;BME280;41754;51.498;7.540;2023-02-03T01:24:13;101199.63;;;8.79;80.18
16190;BME280;41754;51.498;7.540;2023-02-03T01:26:41;101184.75;;;8.75;81.05
16190;BME280;41754;51.498;7.540;2023-02-03T01:29:09;101177.63;;;8.64;80.73
16190;BME280;41754;51.498;7.540;2023-02-03T01:31:38;101177.09;;;8.82;80.17
16190;BME280;41754;51.498;7.540;2023-02-03T01:34:11;101165.00;;;8.93;79.92
16190;BME280;41754;51.498;7.540;2023-02-03T01:36:39;101174.81;;;9.10;78.88
16190;BME280;41754;51.498;7.540;2023-02-03T01:39:07;101176.47;;;9.11;79.03
16190;BME280;41754;51.498;7.540;2023-02-03T01:41:38;101183.13;;;8.59;80.91
16190;BME280;41754;51.498;7.540;2023-02-03T01:44:34;101188.88;;;8.27;81.54
16190;BME280;41754;51.498;7.540;2023-02-03T01:47:02;101187.00;;;8.32;81.95
16190;BME280;41754;51.498;7.540;2023-02-03T01:49:34;101187.81;;;8.43;81.35
16190;BME280;41754;51.498;7.540;2023-02-03T01:52:02;101188.59;;;8.74;81.32
16190;BME280;41754;51.498;7.540;2023-02-03T01:54:34;101178.16;;;8.76;80.82
16190;BME280;41754;51.498;7.540;2023-02-03T01:57:10;101173.78;;;8.95;80.74
16190;BME280;41754;51.498;7.540;2023-02-03T01:59:41;101167.75;;;8.68;80.24
16190;BME280;41754;51.498;7.540;2023-02-03T02:02:10;101175.13;;;9.03;79.58
16190;BME280;41754;51.498;7.540;2023-02-03T02:04:49;101151.84;;;8.80;79.91
16190;BME280;41754;51.498;7.540;2023-02-03T02:07:20;101165.56;;;8.85;80.28
16190;BME280;41754;51.498;7.540;2023-02-03T02:09:48;101158.94;;;8.76;80.39
16190;BME280;41754;51.498;7.540;2023-02-03T02:12:17;101173.53;;;8.82;79.47
16190;BME280;41754;51.498;7.540;2023-02-03T02:14:46;101163.34;;;8.92;78.95
16190;BME280;41754;51.498;7.540;2023-02-03T02:17:25;101145.78;;;8.88;79.39
16190;BME280;41754;51.498;7.540;2023-02-03T02:20:24;101153.94;;;9.14;78.78
16190;BME280;41754;51.498;7.540;2023-02-03T02:23:10;101153.56;;;9.41;76.71
16190;BME280;41754;51.498;7.540;2023-02-03T02:26:02;101124.94;;;8.87;76.98
16190;BME280;41754;51.498;7.540;2023-02-03T02:28:59;101129.22;;;9.19;77.51
16190;BME280;41754;51.498;7.540;2023-02-03T02:31:42;101113.16;;;8.71;78.67
16190;BME280;41754;51.498;7.540;2023-02-03T02:34:21;101104.66;;;8.83;78.68
16190;BME280;41754;51.498;7.540;2023-02-03T02:37:00;101105.47;;;8.84;77.95
16190;BME280;41754;51.498;7.540;2023-02-03T02:39:37;101092.84;;;8.83;78.48
16190;BME280;41754;51.498;7.540;2023-02-03T02:42:13;101098.56;;;8.96;77.85
16190;BME280;41754;51.498;7.540;2023-02-03T02:44:47;101090.81;;;9.09;77.68
16190;BME280;41754;51.498;7.540;2023-02-03T02:47:18;101098.19;;;9.13;77.03
16190;BME280;41754;51.498;7.540;2023-02-03T02:49:53;101108.41;;;9.08;77.24
16190;BME280;41754;51.498;7.540;2023-02-03T02:52:25;101088.31;;;9.17;76.67
16190;BME280;41754;51.498;7.540;2023-02-03T02:54:58;101084.63;;;8.67;77.10
16190;BME280;41754;51.498;7.540;2023-02-03T02:57:30;101085.41;;;8.88;77.49
16190;BME280;41754;51.498;7.540;2023-02-03T03:00:03;101078.19;;;9.08;75.13
16190;BME280;41754;51.498;7.540;2023-02-03T03:02:34;101074.44;;;8.88;76.88
16190;BME280;41754;51.498;7.540;2023-02-03T03:05:03;101083.16;;;9.05;76.03
16190;BME280;41754;51.498;7.540;2023-02-03T03:07:40;101111.44;;;9.55;74.54
16190;BME280;41754;51.498;7.540;2023-02-03T03:10:12;101138.41;;;8.58;76.23
16190;BME280;41754;51.498;7.540;2023-02-03T03:12:46;101154.56;;;8.90;76.43
16190;BME280;41754;51.498;7.540;2023-02-03T03:15:20;101136.41;;;8.99;76.74
16190;BME280;41754;51.498;7.540;2023-02-03T03:17:55;101115.91;;;8.71;76.17
16190;BME280;41754;51.498;7.540;2023-02-03T03:20:26;101118.38;;;8.68;76.62
16190;BME280;41754;51.498;7.540;2023-02-03T03:22:56;101129.31;;;8.88;76.36
16190;BME280;41754;51.498;7.540;2023-02-03T03:25:29;101130.41;;;8.77;76.60
16190;BME280;41754;51.498;7.540;2023-02-03T03:28:01;101109.59;;;8.81;76.69
16190;BME280;41754;51.498;7.540;2023-02-03T03:30:33;101110.44;;;8.61;76.36
16190;BME280;41754;51.498;7.540;2023-02-03T03:33:04;101104.06;;;8.86;76.17
16190;BME280;41754;51.498;7.540;2023-02-03T03:35:37;101124.16;;;8.41;77.29
16190;BME280;41754;51.498;7.540;2023-02-03T03:38:10;101108.03;;;9.29;74.44
16190;BME280;41754;51.498;7.540;2023-02-03T03:40:43;101122.63;;;9.20;74.44
16190;BME280;41754;51.498;7.540;2023-02-03T03:43:17;101115.63;;;8.73;75.39
16190;BME280;41754;51.498;7.540;2023-02-03T03:45:51;101102.19;;;8.71;76.05
16190;BME280;41754;51.498;7.540;2023-02-03T03:48:26;101123.31;;;8.71;76.20
16190;BME280;41754;51.498;7.540;2023-02-03T03:50:59;101108.50;;;8.62;76.18
16190;BME280;41754;51.498;7.540;2023-02-03T03:53:31;101091.94;;;9.02;75.85
16190;BME280;41754;51.498;7.540;2023-02-03T03:56:02;101095.59;;;8.72;75.38
16190;BME280;41754;51.498;7.540;2023-02-03T03:58:32;101103.56;;;8.79;75.50
16190;BME280;41754;51.498;7.540;2023-02-03T04:01:03;101102.25;;;9.26;73.63
16190;BME280;41754;51.498;7.540;2023-02-03T04:03:36;101114.84;;;9.37;72.90
16190;BME280;41754;51.498;7.540;2023-02-03T04:06:06;101115.16;;;9.30;72.10
16190;BME280;41754;51.498;7.540;2023-02-03T04:08:34;101094.63;;;9.18;72.05
16190;BME280;41754;51.498;7.540;2023-02-03T04:11:01;101097.09;;;9.14;71.94
16190;BME280;41754;51.498;7.540;2023-02-03T04:13:29;101102.78;;;9.33;70.70
16190;BME280;41754;51.498;7.540;2023-02-03T04:15:57;101091.69;;;9.48;70.79
16190;BME280;41754;51.498;7.540;2023-02-03T04:18:25;101090.25;;;9.17;71.11
16190;BME280;41754;51.498;7.540;2023-02-03T04:20:54;101083.22;;;9.40;71.24
16190;BME280;41754;51.498;7.540;2023-02-03T04:23:22;101086.41;;;9.13;70.95
16190;BME280;41754;51.498;7.540;2023-02-03T04:25:50;101097.34;;;9.23;70.96
16190;BME280;41754;51.498;7.540;2023-02-03T04:28:18;101090.16;;;9.32;70.43
16190;BME280;41754;51.498;7.540;2023-02-03T04:30:45;101091.06;;;9.17;72.51
16190;BME280;41754;51.498;7.540;2023-02-03T04:33:13;101098.78;;;9.10;72.13
16190;BME280;41754;51.498;7.540;2023-02-03T04:35:41;101110.06;;;9.03;72.03
16190;BME280;41754;51.498;7.540;2023-02-03T04:38:10;101091.13;;;9.56;71.55
16190;BME280;41754;51.498;7.540;2023-02-03T04:40:38;101089.59;;;9.35;71.48
16190;BME280;41754;51.498;7.540;2023-02-03T04:43:06;101102.25;;;9.31;70.94
16190;BME280;41754;51.498;7.540;2023-02-03T04:45:34;101093.72;;;9.32;71.05
16190;BME280;41754;51.498;7.540;2023-02-03T04:48:02;101079.56;;;9.10;71.32
16190;BME280;41754;51.498;7.540;2023-02-03T04:50:31;101065.81;;;9.10;72.31
16190;BME280;41754;51.498;7.540;2023-02-03T04:52:59;101053.00;;;9.40;71.58
16190;BME280;41754;51.498;7.540;2023-02-03T04:55:28;101051.00;;;9.11;71.49
16190;BME280;41754;51.498;7.540;2023-02-03T04:58:17;101055.63;;;9.21;71.20
16190;BME280;41754;51.498;7.540;2023-02-03T05:00:45;101049.75;;;8.83;71.99
16190;BME280;41754;51.498;7.540;2023-02-03T05:03:12;101050.84;;;8.77;73.12
16190;BME280;41754;51.498;7.540;2023-02-03T05:05:40;101078.97;;;8.23;74.49
16190;BME280;41754;51.498;7.540;2023-02-03T05:08:08;101075.56;;;8.72;74.26
16190;BME280;41754;51.498;7.540;2023-02-03T05:10:37;101068.47;;;9.25;72.28
16190;BME280;41754;51.498;7.540;2023-02-03T05:13:05;101062.66;;;8.83;72.53
16190;BME280;41754;51.498;7.540;2023-02-03T05:15:33;101058.41;;;9.11;72.23
16190;BME280;41754;51.498;7.540;2023-02-03T05:18:01;101052.25;;;9.34;71.76
16190;BME280;41754;51.498;7.540;2023-02-03T05:20:29;101037.25;;;9.16;71.02
16190;BME280;41754;51.498;7.540;2023-02-03T05:22:57;101039.34;;;8.80;71.93
16190;BME280;41754;51.498;7.540;2023-02-03T05:25:24;101052.13;;;9.05;72.47
16190;BME280;41754;51.498;7.540;2023-02-03T05:27:53;101062.88;;;8.96;71.76
16190;BME280;41754;51.498;7.540;2023-02-03T05:30:21;101046.34;;;9.07;71.76
16190;BME280;41754;51.498;7.540;2023-02-03T05:32:49;101051.16;;;8.81;72.96
16190;BME280;41754;51.498;7.540;2023-02-03T05:35:17;101056.72;;;9.15;72.03
16190;BME280;41754;51.498;7.540;2023-02-03T05:37:45;101048.09;;;8.87;71.65
16190;BME280;41754;51.498;7.540;2023-02-03T05:40:14;101034.13;;;8.84;72.02
16190;BME280;41754;51.498;7.540;2023-02-03T05:43:01;101029.06;;;9.06;71.38
16190;BME280;41754;51.498;7.540;2023-02-03T05:45:29;101040.38;;;8.94;71.02
16190;BME280;41754;51.498;7.540;2023-02-03T05:47:56;101040.06;;;9.01;71.83
16190;BME280;41754;51.498;7.540;2023-02-03T05:50:24;101047.72;;;9.09;71.63
16190;BME280;41754;51.498;7.540;2023-02-03T05:52:53;101034.31;;;8.97;71.98
16190;BME280;41754;51.498;7.540;2023-02-03T05:55:21;101042.75;;;9.11;70.46
16190;BME280;41754;51.498;7.540;2023-02-03T05:57:49;101024.94;;;9.09;70.85
16190;BME280;41754;51.498;7.540;2023-02-03T06:00:20;101040.78;;;9.22;70.14
16190;BME280;41754;51.498;7.540;2023-02-03T06:02:50;101043.56;;;9.17;70.90
16190;BME280;41754;51.498;7.540;2023-02-03T06:05:19;101038.50;;;9.34;70.15
16190;BME280;41754;51.498;7.540;2023-02-03T06:07:48;101034.38;;;8.77;71.25
16190;BME280;41754;51.498;7.540;2023-02-03T06:10:16;101033.25;;;8.88;71.81
16190;BME280;41754;51.498;7.540;2023-02-03T06:12:44;101042.75;;;9.16;70.98
16190;BME280;41754;51.498;7.540;2023-02-03T06:15:12;101038.66;;;9.09;69.94
16190;BME280;41754;51.498;7.540;2023-02-03T06:17:44;101045.06;;;9.38;69.87
16190;BME280;41754;51.498;7.540;2023-02-03T06:20:15;101046.81;;;9.24;69.81
16190;BME280;41754;51.498;7.540;2023-02-03T06:22:44;101044.72;;;9.05;71.33
16190;BME280;41754;51.498;7.540;2023-02-03T06:25:12;101040.81;;;9.17;71.62
16190;BME280;41754;51.498;7.540;2023-02-03T06:27:40;101027.16;;;9.07;70.59
16190;BME280;41754;51.498;7.540;2023-02-03T06:30:09;101046.91;;;9.09;70.53
16190;BME280;41754;51.498;7.540;2023-02-03T06:32:37;101054.72;;;8.81;72.33
16190;BME280;41754;51.498;7.540;2023-02-03T06:35:07;101070.34;;;8.65;72.98
16190;BME280;41754;51.498;7.540;2023-02-03T06:37:35;101050.78;;;8.97;71.87
16190;BME280;41754;51.498;7.540;2023-02-03T06:40:05;101039.56;;;9.43;70.81
16190;BME280;41754;51.498;7.540;2023-02-03T06:42:33;101046.47;;;9.35;70.08
16190;BME280;41754;51.498;7.540;2023-02-03T06:45:00;101048.16;;;9.26;71.01
16190;BME280;41754;51.498;7.540;2023-02-03T06:47:28;101061.47;;;9.04;71.85
16190;BME280;41754;51.498;7.540;2023-02-03T06:49:56;101055.00;;;9.34;70.65
16190;BME280;41754;51.498;7.540;2023-02-03T06:52:25;101041.13;;;9.54;69.72
16190;BME280;41754;51.498;7.540;2023-02-03T06:54:53;101050.69;;;9.18;71.06
16190;BME280;41754;51.498;7.540;2023-02-03T06:57:21;101039.69;;;9.62;70.46
16190;BME280;41754;51.498;7.540;2023-02-03T06:59:49;101045.81;;;9.04;71.70
16190;BME280;41754;51.498;7.540;2023-02-03T07:02:17;101061.06;;;9.31;71.06
16190;BME280;41754;51.498;7.540;2023-02-03T07:04:45;101065.28;;;9.57;72.24
16190;BME280;41754;51.498;7.540;2023-02-03T07:07:13;101070.88;;;9.81;70.90
16190;BME280;41754;51.498;7.540;2023-02-03T07:09:42;101066.69;;;9.55;71.29
16190;BME280;41754;51.498;7.540;2023-02-03T07:12:10;101080.72;;;9.48;71.90
16190;BME280;41754;51.498;7.540;2023-02-03T07:14:37;101069.06;;;9.67;72.43
16190;BME280;41754;51.498;7.540;2023-02-03T07:17:05;101081.81;;;9.86;72.51
16190;BME280;41754;51.498;7.540;2023-02-03T07:19:33;101069.94;;;9.96;72.66
16190;BME280;41754;51.498;7.540;2023-02-03T07:22:01;101074.81;;;9.70;73.48
16190;BME280;41754;51.498;7.540;2023-02-03T07:24:29;101075.56;;;9.81;74.37
16190;BME280;41754;51.498;7.540;2023-02-03T07:26:58;101059.28;;;9.50;74.63
16190;BME280;41754;51.498;7.540;2023-02-03T07:29:27;101061.97;;;9.94;73.73
16190;BME280;41754;51.498;7.540;2023-02-03T07:31:55;101073.34;;;9.39;76.02
16190;BME280;41754;51.498;7.540;2023-02-03T07:34:23;101072.28;;;9.34;75.96
16190;BME280;41754;51.498;7.540;2023-02-03T07:36:51;101062.47;;;9.62;75.58
16190;BME280;41754;51.498;7.540;2023-02-03T07:39:19;101055.69;;;9.50;75.86
16190;BME280;41754;51.498;7.540;2023-02-03T07:41:47;101054.88;;;9.54;75.40
16190;BME280;41754;51.498;7.540;2023-02-03T07:44:16;101070.53;;;9.88;72.99
16190;BME280;41754;51.498;7.540;2023-02-03T07:46:44;101064.84;;;9.79;72.53
16190;BME280;41754;51.498;7.540;2023-02-03T07:49:12;101072.59;;;10.06;72.44
16190;BME280;41754;51.498;7.540;2023-02-03T07:51:40;101067.00;;;10.16;71.03
16190;BME280;41754;51.498;7.540;2023-02-03T07:54:08;101067.97;;;9.68;71.56
16190;BME280;41754;51.498;7.540;2023-02-03T07:56:36;101059.19;;;9.60;72.38
16190;BME280;41754;51.498;7.540;2023-02-03T07:59:04;101061.00;;;10.09;70.45
16190;BME280;41754;51.498;7.540;2023-02-03T08:01:33;101070.38;;;10.08;69.66
16190;BME280;41754;51.498;7.540;2023-02-03T08:04:01;101077.78;;;9.74;70.07
16190;BME280;41754;51.498;7.540;2023-02-03T08:06:31;101067.50;;;9.89;69.89
16190;BME280;41754;51.498;7.540;2023-02-03T08:08:59;101071.72;;;9.38;70.62
16190;BME280;41754;51.498;7.540;2023-02-03T08:11:26;101068.13;;;9.42;71.38
16190;BME280;41754;51.498;7.540;2023-02-03T08:13:54;101081.06;;;9.37;71.43
16190;BME280;41754;51.498;7.540;2023-02-03T08:16:22;101071.75;;;9.32;71.77
16190;BME280;41754;51.498;7.540;2023-02-03T08:18:51;101084.09;;;9.35;71.39
16190;BME280;41754;51.498;7.540;2023-02-03T08:21:19;101069.78;;;9.43;71.10
16190;BME280;41754;51.498;7.540;2023-02-03T08:23:47;101084.72;;;9.22;71.95
16190;BME280;41754;51.498;7.540;2023-02-03T08:26:14;101073.63;;;9.42;71.86
16190;BME280;41754;51.498;7.540;2023-02-03T08:28:42;101077.19;;;9.82;70.78
16190;BME280;41754;51.498;7.540;2023-02-03T08:31:14;101080.00;;;9.27;70.72
16190;BME280;41754;51.498;7.540;2023-02-03T08:33:42;101084.19;;;9.15;71.66
16190;BME280;41754;51.498;7.540;2023-02-03T08:36:11;101073.47;;;9.62;70.32
16190;BME280;41754;51.498;7.540;2023-02-03T08:38:40;101075.81;;;9.40;70.30
16190;BME280;41754;51.498;7.540;2023-02-03T08:41:08;101054.59;;;9.07;70.94
16190;BME280;41754;51.498;7.540;2023-02-03T08:43:37;101051.19;;;9.69;71.88
16190;BME280;41754;51.498;7.540;2023-02-03T08:46:06;101052.66;;;9.56;70.18
16190;BME280;41754;51.498;7.540;2023-02-03T08:48:35;101067.97;;;9.62;70.01
16190;BME280;41754;51.498;7.540;2023-02-03T08:51:09;101074.09;;;9.54;70.41
16190;BME280;41754;51.498;7.540;2023-02-03T08:53:38;101083.03;;;9.70;69.85
16190;BME280;41754;51.498;7.540;2023-02-03T08:56:07;101077.22;;;9.77;69.83
16190;BME280;41754;51.498;7.540;2023-02-03T08:58:35;101078.53;;;9.45;69.58
16190;BME280;41754;51.498;7.540;2023-02-03T09:01:07;101080.38;;;9.16;70.89
16190;BME280;41754;51.498;7.540;2023-02-03T09:03:35;101074.88;;;9.60;71.07
16190;BME280;41754;51.498;7.540;2023-02-03T09:06:04;101067.16;;;9.62;70.88
16190;BME280;41754;51.498;7.540;2023-02-03T09:08:32;101097.66;;;9.60;69.17
16190;BME280;41754;51.498;7.540;2023-02-03T09:11:02;101076.22;;;9.62;70.19
16190;BME280;41754;51.498;7.540;2023-02-03T09:13:34;101087.56;;;9.51;69.98
16190;BME280;41754;51.498;7.540;2023-02-03T09:16:02;101075.03;;;9.79;69.13
16190;BME280;41754;51.498;7.540;2023-02-03T09:18:30;101081.16;;;9.66;69.99
16190;BME280;41754;51.498;7.540;2023-02-03T09:20:59;101089.69;;;10.03;68.78
16190;BME280;41754;51.498;7.540;2023-02-03T09:23:28;101093.47;;;9.73;69.16
16190;BME280;41754;51.498;7.540;2023-02-03T09:26:01;101090.34;;;9.46;70.90
16190;BME280;41754;51.498;7.540;2023-02-03T09:28:29;101108.22;;;9.43;71.19
16190;BME280;41754;51.498;7.540;2023-02-03T09:30:58;101104.63;;;9.48;71.32
16190;BME280;41754;51.498;7.540;2023-02-03T09:33:27;101105.06;;;10.04;68.65
16190;BME280;41754;51.498;7.540;2023-02-03T09:35:56;101077.59;;;9.99;68.61
16190;BME280;41754;51.498;7.540;2023-02-03T09:38:24;101099.75;;;9.79;68.55
16190;BME280;41754;51.498;7.540;2023-02-03T09:40:54;101097.03;;;9.29;70.93
16190;BME280;41754;51.498;7.540;2023-02-03T09:43:40;101086.91;;;9.69;70.32
16190;BME280;41754;51.498;7.540;2023-02-03T09:46:12;101094.69;;;9.02;71.82
16190;BME280;41754;51.498;7.540;2023-02-03T09:48:46;101079.88;;;9.87;69.86
16190;BME280;41754;51.498;7.540;2023-02-03T09:51:18;101084.75;;;9.12;71.83
16190;BME280;41754;51.498;7.540;2023-02-03T09:53:52;101084.03;;;9.45;70.90
16190;BME280;41754;51.498;7.540;2023-02-03T09:56:26;101072.13;;;9.60;70.71
16190;BME280;41754;51.498;7.540;2023-02-03T09:58:57;101082.59;;;9.58;70.89
16190;BME280;41754;51.498;7.540;2023-02-03T10:01:29;101076.72;;;9.70;70.84
16190;BME280;41754;51.498;7.540;2023-02-03T10:04:04;101080.19;;;9.46;71.40
16190;BME280;41754;51.498;7.540;2023-02-03T10:06:42;101090.47;;;9.70;71.20
16190;BME280;41754;51.498;7.540;2023-02-03T10:09:25;101108.69;;;9.55;70.75
16190;BME280;41754;51.498;7.540;2023-02-03T10:12:19;101103.47;;;10.32;69.13
16190;BME280;41754;51.498;7.540;2023-02-03T10:15:02;101096.22;;;10.07;69.05
16190;BME280;41754;51.498;7.540;2023-02-03T10:17:38;101098.31;;;9.47;70.74
16190;BME280;41754;51.498;7.540;2023-02-03T10:20:13;101099.13;;;9.48;70.50
16190;BME280;41754;51.498;7.540;2023-02-03T10:22:46;101097.06;;;9.69;71.41
16190;BME280;41754;51.498;7.540;2023-02-03T10:25:18;101099.06;;;9.97;69.90
16190;BME280;41754;51.498;7.540;2023-02-03T10:27:50;101117.88;;;9.80;69.68
16190;BME280;41754;51.498;7.540;2023-02-03T10:30:23;101111.66;;;10.03;69.34
16190;BME280;41754;51.498;7.540;2023-02-03T10:32:53;101113.41;;;9.50;70.67
16190;BME280;41754;51.498;7.540;2023-02-03T10:35:27;101123.47;;;9.64;71.23
16190;BME280;41754;51.498;7.540;2023-02-03T10:37:58;101109.47;;;10.00;70.51
16190;BME280;41754;51.498;7.540;2023-02-03T10:40:26;101111.22;;;9.86;70.19
16190;BME280;41754;51.498;7.540;2023-02-03T10:42:55;101124.03;;;9.61;72.04
16190;BME280;41754;51.498;7.540;2023-02-03T10:45:42;101111.81;;;9.83;70.55
16190;BME280;41754;51.498;7.540;2023-02-03T10:48:14;101122.53;;;9.84;70.88
16190;BME280;41754;51.498;7.540;2023-02-03T10:50:45;101114.84;;;9.81;71.18
16190;BME280;41754;51.498;7.540;2023-02-03T10:53:21;101121.56;;;9.99;70.38
16190;BME280;41754;51.498;7.540;2023-02-03T10:55:50;101096.09;;;10.28;69.53
16190;BME280;41754;51.498;7.540;2023-02-03T10:58:24;101088.41;;;10.25;69.54
16190;BME280;41754;51.498;7.540;2023-02-03T11:01:04;101086.50;;;10.49;68.79
16190;BME280;41754;51.498;7.540;2023-02-03T11:03:32;101091.28;;;10.38;68.32
16190;BME280;41754;51.498;7.540;2023-02-03T11:06:09;101091.16;;;10.25;68.81
16190;BME280;41754;51.498;7.540;2023-02-03T11:08:39;101092.38;;;10.42;68.93
16190;BME280;41754;51.498;7.540;2023-02-03T11:11:08;101100.78;;;10.51;68.47
16190;BME280;41754;51.498;7.540;2023-02-03T11:13:39;101101.41;;;10.72;68.22
16190;BME280;41754;51.498;7.540;2023-02-03T11:16:13;101113.22;;;10.72;68.14
16190;BME280;41754;51.498;7.540;2023-02-03T11:18:50;101099.88;;;10.85;66.71
16190;BME280;41754;51.498;7.540;2023-02-03T11:21:20;101112.59;;;10.80;66.51
16190;BME280;41754;51.498;7.540;2023-02-03T11:23:55;101109.13;;;10.70;67.63
16190;BME280;41754;51.498;7.540;2023-02-03T11:26:26;101113.53;;;10.71;67.58
16190;BME280;41754;51.498;7.540;2023-02-03T11:28:56;101117.50;;;10.31;68.69
16190;BME280;41754;51.498;7.540;2023-02-03T11:31:27;101120.75;;;10.67;68.23
16190;BME280;41754;51.498;7.540;2023-02-03T11:33:58;101117.56;;;10.55;68.15
16190;BME280;41754;51.498;7.540;2023-02-03T11:36:29;101136.53;;;10.27;69.29
16190;BME280;41754;51.498;7.540;2023-02-03T11:39:18;101128.16;;;10.66;69.08
16190;BME280;41754;51.498;7.540;2023-02-03T11:41:47;101132.22;;;10.98;68.10
16190;BME280;41754;51.498;7.540;2023-02-03T11:44:17;101137.16;;;10.48;68.46
16190;BME280;41754;51.498;7.540;2023-02-03T11:46:48;101128.47;;;9.97;72.03
16190;BME280;41754;51.498;7.540;2023-02-03T11:49:51;101136.13;;;10.05;73.40
16190;BME280;41754;51.498;7.540;2023-02-03T11:55:26;101133.63;;;9.69;75.95
16190;BME280;41754;51.498;7.540;2023-02-03T11:58:11;101126.16;;;9.75;76.53
16190;BME280;41754;51.498;7.540;2023-02-03T12:00:45;101100.47;;;9.89;77.13
16190;BME280;41754;51.498;7.540;2023-02-03T12:03:38;101107.91;;;9.89;75.96
16190;BME280;41754;51.498;7.540;2023-02-03T12:09:14;101105.63;;;10.01;74.00
16190;BME280;41754;51.498;7.540;2023-02-03T12:12:29;101106.41;;;10.07;73.68
16190;BME280;41754;51.498;7.540;2023-02-03T12:15:06;101104.31;;;9.93;73.85
16190;BME280;41754;51.498;7.540;2023-02-03T12:17:51;101113.47;;;10.18;73.45
16190;BME280;41754;51.498;7.540;2023-02-03T12:20:31;101126.19;;;10.09;72.64
16190;BME280;41754;51.498;7.540;2023-02-03T12:23:11;101132.16;;;10.50;70.20
16190;BME280;41754;51.498;7.540;2023-02-03T12:25:51;101136.56;;;10.51;70.94
16190;BME280;41754;51.498;7.540;2023-02-03T12:28:39;101132.56;;;10.04;71.87
16190;BME280;41754;51.498;7.540;2023-02-03T12:31:14;101124.88;;;10.35;71.16
16190;BME280;41754;51.498;7.540;2023-02-03T12:33:48;101130.28;;;10.11;71.59
16190;BME280;41754;51.498;7.540;2023-02-03T12:36:21;101121.94;;;10.56;71.02
16190;BME280;41754;51.498;7.540;2023-02-03T12:38:54;101124.59;;;10.66;70.28
16190;BME280;41754;51.498;7.540;2023-02-03T12:41:25;101143.16;;;10.50;70.00
16190;BME280;41754;51.498;7.540;2023-02-03T12:43:59;101120.00;;;10.56;69.96
16190;BME280;41754;51.498;7.540;2023-02-03T12:46:30;101129.94;;;10.81;69.06
16190;BME280;41754;51.498;7.540;2023-02-03T12:49:02;101147.59;;;10.75;69.32
16190;BME280;41754;51.498;7.540;2023-02-03T12:51:37;101136.69;;;10.94;68.43
16190;BME280;41754;51.498;7.540;2023-02-03T12:54:28;101138.53;;;10.74;69.37
16190;BME280;41754;51.498;7.540;2023-02-03T12:57:07;101141.88;;;10.71;70.10
16190;BME280;41754;51.498;7.540;2023-02-03T12:59:38;101130.78;;;10.76;68.82
16190;BME280;41754;51.498;7.540;2023-02-03T13:02:13;101118.16;;;10.75;68.88
16190;BME280;41754;51.498;7.540;2023-02-03T13:04:48;101127.78;;;11.02;67.80
16190;BME280;41754;51.498;7.540;2023-02-03T13:07:23;101125.13;;;10.92;68.00
16190;BME280;41754;51.498;7.540;2023-02-03T13:09:56;101123.31;;;11.06;67.55
16190;BME280;41754;51.498;7.540;2023-02-03T13:12:29;101120.66;;;10.72;68.27
16190;BME280;41754;51.498;7.540;2023-02-03T13:15:05;101121.38;;;10.82;69.16
16190;BME280;41754;51.498;7.540;2023-02-03T13:17:45;101120.09;;;10.46;69.86
16190;BME280;41754;51.498;7.540;2023-02-03T13:20:19;101119.38;;;10.64;69.99
16190;BME280;41754;51.498;7.540;2023-02-03T13:22:48;101097.50;;;10.78;68.97
16190;BME280;41754;51.498;7.540;2023-02-03T13:25:22;101092.59;;;10.46;69.23